Harriman, Wyoming
Current Conditions -  °F | °C
As of 1:56 AM on Sunday 26 Oct 2014 (Local Time) from KFEW Reporting Station
Clear Clear  
Wind Chill: 38°   Ceiling: Unl
Heat Index: 38°   Visibility: 10mi
Dew Point: 24°   Wind: 3mph
Humidity: 57%   Direction: 10°N
Pressure: 29.93"   Gusts: NA
Location:  41.0966°N, 105.138°W
Report Text: KFEW 260756Z AUTO 01003KT 10SM CLR 03/M04 A2993 RMK AO2 SLP081 T00341045 $
Loading
Personal Weather Stations






























Interactive Weather Map
Tropical Storm Tracking
New forecast layout! Learn more

10-Day Weather Forecast

Advertisements
Track Severe Weather on mobile